sensor_id;sensor_type;location;lat;lon;timestamp;P1;durP1;ratioP1;P2;durP2;ratioP2
26211;SDS011;13951;49.516;6.094;2023-03-12T00:00:34;3.23;;;2.10;;
26211;SDS011;13951;49.516;6.094;2023-03-12T00:03:07;3.27;;;1.60;;
26211;SDS011;13951;49.516;6.094;2023-03-12T00:05:40;3.63;;;1.50;;
26211;SDS011;13951;49.516;6.094;2023-03-12T00:08:14;2.73;;;2.13;;
26211;SDS011;13951;49.516;6.094;2023-03-12T00:10:47;2.50;;;1.67;;
26211;SDS011;13951;49.516;6.094;2023-03-12T00:13:19;9.17;;;2.27;;
26211;SDS011;13951;49.516;6.094;2023-03-12T00:15:52;4.03;;;1.80;;
26211;SDS011;13951;49.516;6.094;2023-03-12T00:18:25;2.83;;;2.13;;
26211;SDS011;13951;49.516;6.094;2023-03-12T00:20:58;3.80;;;2.07;;
26211;SDS011;13951;49.516;6.094;2023-03-12T00:23:31;3.80;;;2.40;;
26211;SDS011;13951;49.516;6.094;2023-03-12T00:26:05;6.30;;;2.63;;
26211;SDS011;13951;49.516;6.094;2023-03-12T00:28:40;7.10;;;2.70;;
26211;SDS011;13951;49.516;6.094;2023-03-12T00:33:54;5.63;;;2.20;;
26211;SDS011;13951;49.516;6.094;2023-03-12T00:36:28;6.53;;;2.60;;
26211;SDS011;13951;49.516;6.094;2023-03-12T00:39:02;3.73;;;2.00;;
26211;SDS011;13951;49.516;6.094;2023-03-12T00:41:35;5.67;;;2.73;;
26211;SDS011;13951;49.516;6.094;2023-03-12T00:44:08;6.17;;;2.20;;
26211;SDS011;13951;49.516;6.094;2023-03-12T00:46:41;2.93;;;2.10;;
26211;SDS011;13951;49.516;6.094;2023-03-12T00:49:14;5.17;;;2.47;;
26211;SDS011;13951;49.516;6.094;2023-03-12T00:51:47;5.47;;;2.70;;
26211;SDS011;13951;49.516;6.094;2023-03-12T00:54:20;5.17;;;2.10;;
26211;SDS011;13951;49.516;6.094;2023-03-12T00:56:53;3.80;;;2.50;;
26211;SDS011;13951;49.516;6.094;2023-03-12T00:59:29;3.90;;;2.40;;
26211;SDS011;13951;49.516;6.094;2023-03-12T01:02:03;4.10;;;2.97;;
26211;SDS011;13951;49.516;6.094;2023-03-12T01:04:35;6.23;;;2.47;;
26211;SDS011;13951;49.516;6.094;2023-03-12T01:07:08;4.23;;;2.20;;
26211;SDS011;13951;49.516;6.094;2023-03-12T01:09:41;4.47;;;2.50;;
26211;SDS011;13951;49.516;6.094;2023-03-12T01:12:14;4.50;;;2.57;;
26211;SDS011;13951;49.516;6.094;2023-03-12T01:14:47;3.97;;;2.37;;
26211;SDS011;13951;49.516;6.094;2023-03-12T01:17:19;4.43;;;2.80;;
26211;SDS011;13951;49.516;6.094;2023-03-12T01:19:52;5.40;;;2.57;;
26211;SDS011;13951;49.516;6.094;2023-03-12T01:22:25;4.90;;;2.77;;
26211;SDS011;13951;49.516;6.094;2023-03-12T01:24:58;3.23;;;2.30;;
26211;SDS011;13951;49.516;6.094;2023-03-12T01:27:31;4.10;;;2.87;;
26211;SDS011;13951;49.516;6.094;2023-03-12T01:30:04;8.70;;;3.17;;
26211;SDS011;13951;49.516;6.094;2023-03-12T01:32:37;7.63;;;2.80;;
26211;SDS011;13951;49.516;6.094;2023-03-12T01:35:10;6.33;;;2.67;;
26211;SDS011;13951;49.516;6.094;2023-03-12T01:37:43;3.23;;;2.57;;
26211;SDS011;13951;49.516;6.094;2023-03-12T01:40:17;4.67;;;2.23;;
26211;SDS011;13951;49.516;6.094;2023-03-12T01:42:52;8.27;;;3.33;;
26211;SDS011;13951;49.516;6.094;2023-03-12T01:48:51;8.97;;;2.90;;
26211;SDS011;13951;49.516;6.094;2023-03-12T01:51:36;4.53;;;2.23;;
26211;SDS011;13951;49.516;6.094;2023-03-12T01:54:22;4.03;;;1.80;;
26211;SDS011;13951;49.516;6.094;2023-03-12T01:57:01;5.10;;;1.93;;
26211;SDS011;13951;49.516;6.094;2023-03-12T01:59:40;2.90;;;2.33;;
26211;SDS011;13951;49.516;6.094;2023-03-12T02:02:16;2.67;;;1.77;;
26211;SDS011;13951;49.516;6.094;2023-03-12T02:04:58;5.50;;;2.30;;
26211;SDS011;13951;49.516;6.094;2023-03-12T02:07:48;4.40;;;2.50;;
26211;SDS011;13951;49.516;6.094;2023-03-12T02:10:21;4.47;;;2.63;;
26211;SDS011;13951;49.516;6.094;2023-03-12T02:12:54;2.27;;;2.07;;
26211;SDS011;13951;49.516;6.094;2023-03-12T02:15:27;5.97;;;2.53;;
26211;SDS011;13951;49.516;6.094;2023-03-12T02:18:01;3.67;;;2.10;;
26211;SDS011;13951;49.516;6.094;2023-03-12T02:26:23;5.53;;;2.03;;
26211;SDS011;13951;49.516;6.094;2023-03-12T02:28:58;4.38;;;2.35;;
26211;SDS011;13951;49.516;6.094;2023-03-12T02:31:34;4.23;;;2.50;;
26211;SDS011;13951;49.516;6.094;2023-03-12T02:34:12;8.47;;;2.00;;
26211;SDS011;13951;49.516;6.094;2023-03-12T02:36:44;5.53;;;2.20;;
26211;SDS011;13951;49.516;6.094;2023-03-12T02:39:18;5.77;;;2.03;;
26211;SDS011;13951;49.516;6.094;2023-03-12T02:41:53;1.83;;;1.10;;
26211;SDS011;13951;49.516;6.094;2023-03-12T02:44:29;5.67;;;2.60;;
26211;SDS011;13951;49.516;6.094;2023-03-12T02:47:04;8.07;;;2.40;;
26211;SDS011;13951;49.516;6.094;2023-03-12T02:49:37;7.13;;;2.33;;
26211;SDS011;13951;49.516;6.094;2023-03-12T02:52:10;2.00;;;1.87;;
26211;SDS011;13951;49.516;6.094;2023-03-12T02:54:43;3.23;;;1.90;;
26211;SDS011;13951;49.516;6.094;2023-03-12T02:57:16;4.40;;;2.10;;
26211;SDS011;13951;49.516;6.094;2023-03-12T02:59:49;5.53;;;2.30;;
26211;SDS011;13951;49.516;6.094;2023-03-12T03:02:22;3.87;;;2.37;;
26211;SDS011;13951;49.516;6.094;2023-03-12T03:04:55;5.53;;;2.50;;
26211;SDS011;13951;49.516;6.094;2023-03-12T03:07:28;4.60;;;2.20;;
26211;SDS011;13951;49.516;6.094;2023-03-12T03:10:02;4.17;;;2.23;;
26211;SDS011;13951;49.516;6.094;2023-03-12T03:12:37;5.43;;;2.57;;
26211;SDS011;13951;49.516;6.094;2023-03-12T03:15:11;2.97;;;2.07;;
26211;SDS011;13951;49.516;6.094;2023-03-12T03:17:44;2.80;;;2.10;;
26211;SDS011;13951;49.516;6.094;2023-03-12T03:20:17;2.53;;;2.07;;
26211;SDS011;13951;49.516;6.094;2023-03-12T03:22:50;4.97;;;2.40;;
26211;SDS011;13951;49.516;6.094;2023-03-12T03:25:23;3.73;;;2.23;;
26211;SDS011;13951;49.516;6.094;2023-03-12T03:27:56;3.37;;;2.30;;
26211;SDS011;13951;49.516;6.094;2023-03-12T03:30:28;9.37;;;2.40;;
26211;SDS011;13951;49.516;6.094;2023-03-12T03:33:01;7.13;;;2.10;;
26211;SDS011;13951;49.516;6.094;2023-03-12T03:35:35;2.47;;;2.23;;
26211;SDS011;13951;49.516;6.094;2023-03-12T03:38:09;5.43;;;2.70;;
26211;SDS011;13951;49.516;6.094;2023-03-12T03:40:41;2.97;;;2.00;;
26211;SDS011;13951;49.516;6.094;2023-03-12T03:43:15;5.77;;;2.10;;
26211;SDS011;13951;49.516;6.094;2023-03-12T03:45:55;3.50;;;2.30;;
26211;SDS011;13951;49.516;6.094;2023-03-12T03:48:32;2.43;;;1.90;;
26211;SDS011;13951;49.516;6.094;2023-03-12T03:51:06;4.80;;;2.20;;
26211;SDS011;13951;49.516;6.094;2023-03-12T03:53:42;4.07;;;1.80;;
26211;SDS011;13951;49.516;6.094;2023-03-12T03:56:15;6.57;;;2.03;;
26211;SDS011;13951;49.516;6.094;2023-03-12T03:58:53;5.67;;;2.27;;
26211;SDS011;13951;49.516;6.094;2023-03-12T04:01:27;2.33;;;2.03;;
26211;SDS011;13951;49.516;6.094;2023-03-12T04:04:01;6.20;;;2.30;;
26211;SDS011;13951;49.516;6.094;2023-03-12T04:06:37;6.27;;;2.13;;
26211;SDS011;13951;49.516;6.094;2023-03-12T04:09:10;4.07;;;2.30;;
26211;SDS011;13951;49.516;6.094;2023-03-12T04:11:44;4.87;;;2.23;;
26211;SDS011;13951;49.516;6.094;2023-03-12T04:14:18;2.43;;;2.23;;
26211;SDS011;13951;49.516;6.094;2023-03-12T04:16:51;3.80;;;2.17;;
26211;SDS011;13951;49.516;6.094;2023-03-12T04:19:23;4.30;;;2.67;;
26211;SDS011;13951;49.516;6.094;2023-03-12T04:21:56;4.35;;;2.75;;
26211;SDS011;13951;49.516;6.094;2023-03-12T04:24:29;7.93;;;2.80;;
26211;SDS011;13951;49.516;6.094;2023-03-12T04:27:02;2.90;;;2.30;;
26211;SDS011;13951;49.516;6.094;2023-03-12T04:29:37;3.67;;;2.33;;
26211;SDS011;13951;49.516;6.094;2023-03-12T04:32:11;9.87;;;3.53;;
26211;SDS011;13951;49.516;6.094;2023-03-12T04:34:44;2.60;;;2.40;;
26211;SDS011;13951;49.516;6.094;2023-03-12T04:37:19;7.03;;;2.20;;
26211;SDS011;13951;49.516;6.094;2023-03-12T04:39:53;4.83;;;2.67;;
26211;SDS011;13951;49.516;6.094;2023-03-12T04:42:25;3.93;;;2.80;;
26211;SDS011;13951;49.516;6.094;2023-03-12T04:44:58;3.10;;;2.43;;
26211;SDS011;13951;49.516;6.094;2023-03-12T04:47:31;7.43;;;2.67;;
26211;SDS011;13951;49.516;6.094;2023-03-12T04:50:05;7.20;;;2.70;;
26211;SDS011;13951;49.516;6.094;2023-03-12T04:52:39;2.77;;;2.30;;
26211;SDS011;13951;49.516;6.094;2023-03-12T04:55:12;4.70;;;2.77;;
26211;SDS011;13951;49.516;6.094;2023-03-12T04:57:45;3.13;;;2.57;;
26211;SDS011;13951;49.516;6.094;2023-03-12T05:00:18;3.93;;;2.40;;
26211;SDS011;13951;49.516;6.094;2023-03-12T05:02:51;2.90;;;2.60;;
26211;SDS011;13951;49.516;6.094;2023-03-12T05:05:24;6.97;;;2.53;;
26211;SDS011;13951;49.516;6.094;2023-03-12T05:07:57;5.13;;;3.10;;
26211;SDS011;13951;49.516;6.094;2023-03-12T05:10:30;3.20;;;2.67;;
26211;SDS011;13951;49.516;6.094;2023-03-12T05:13:03;3.50;;;2.47;;
26211;SDS011;13951;49.516;6.094;2023-03-12T05:15:45;3.70;;;2.87;;
26211;SDS011;13951;49.516;6.094;2023-03-12T05:18:19;3.97;;;2.63;;
26211;SDS011;13951;49.516;6.094;2023-03-12T05:20:59;5.43;;;2.77;;
26211;SDS011;13951;49.516;6.094;2023-03-12T05:24:01;6.73;;;2.73;;
26211;SDS011;13951;49.516;6.094;2023-03-12T05:26:34;4.37;;;2.90;;
26211;SDS011;13951;49.516;6.094;2023-03-12T05:29:14;3.73;;;2.93;;
26211;SDS011;13951;49.516;6.094;2023-03-12T05:31:47;5.20;;;3.20;;
26211;SDS011;13951;49.516;6.094;2023-03-12T05:34:21;3.53;;;2.67;;
26211;SDS011;13951;49.516;6.094;2023-03-12T05:36:53;5.00;;;2.77;;
26211;SDS011;13951;49.516;6.094;2023-03-12T05:39:29;4.43;;;3.10;;
26211;SDS011;13951;49.516;6.094;2023-03-12T05:42:07;5.07;;;2.70;;
26211;SDS011;13951;49.516;6.094;2023-03-12T05:44:41;4.97;;;3.00;;
26211;SDS011;13951;49.516;6.094;2023-03-12T05:47:17;3.70;;;2.80;;
26211;SDS011;13951;49.516;6.094;2023-03-12T05:49:51;5.00;;;3.43;;
26211;SDS011;13951;49.516;6.094;2023-03-12T05:52:23;4.80;;;3.30;;
26211;SDS011;13951;49.516;6.094;2023-03-12T05:54:56;5.00;;;2.60;;
26211;SDS011;13951;49.516;6.094;2023-03-12T05:57:29;3.03;;;2.70;;
26211;SDS011;13951;49.516;6.094;2023-03-12T06:00:04;5.00;;;3.27;;
26211;SDS011;13951;49.516;6.094;2023-03-12T06:02:44;4.17;;;3.13;;
26211;SDS011;13951;49.516;6.094;2023-03-12T06:05:17;4.83;;;3.50;;
26211;SDS011;13951;49.516;6.094;2023-03-12T06:07:50;5.63;;;3.27;;
26211;SDS011;13951;49.516;6.094;2023-03-12T06:10:22;4.03;;;2.90;;
26211;SDS011;13951;49.516;6.094;2023-03-12T06:12:55;5.67;;;3.27;;
26211;SDS011;13951;49.516;6.094;2023-03-12T06:15:28;5.37;;;3.53;;
26211;SDS011;13951;49.516;6.094;2023-03-12T06:18:02;3.77;;;2.90;;
26211;SDS011;13951;49.516;6.094;2023-03-12T06:20:36;5.97;;;3.37;;
26211;SDS011;13951;49.516;6.094;2023-03-12T06:23:08;5.07;;;3.47;;
26211;SDS011;13951;49.516;6.094;2023-03-12T06:25:43;5.17;;;3.50;;
26211;SDS011;13951;49.516;6.094;2023-03-12T06:28:18;4.20;;;2.93;;
26211;SDS011;13951;49.516;6.094;2023-03-12T06:30:52;5.00;;;3.57;;
26211;SDS011;13951;49.516;6.094;2023-03-12T06:33:25;6.43;;;3.70;;
26211;SDS011;13951;49.516;6.094;2023-03-12T06:36:00;5.77;;;3.90;;
26211;SDS011;13951;49.516;6.094;2023-03-12T06:38:34;6.70;;;4.27;;
26211;SDS011;13951;49.516;6.094;2023-03-12T06:41:09;6.27;;;3.67;;
26211;SDS011;13951;49.516;6.094;2023-03-12T06:43:47;6.80;;;3.83;;
26211;SDS011;13951;49.516;6.094;2023-03-12T06:46:20;5.57;;;3.90;;
26211;SDS011;13951;49.516;6.094;2023-03-12T06:48:53;6.07;;;3.80;;
26211;SDS011;13951;49.516;6.094;2023-03-12T06:51:26;5.77;;;4.03;;
26211;SDS011;13951;49.516;6.094;2023-03-12T06:53:58;7.00;;;4.00;;
26211;SDS011;13951;49.516;6.094;2023-03-12T06:56:33;5.40;;;3.70;;
26211;SDS011;13951;49.516;6.094;2023-03-12T06:59:06;5.50;;;3.87;;
26211;SDS011;13951;49.516;6.094;2023-03-12T07:01:39;5.57;;;3.93;;
26211;SDS011;13951;49.516;6.094;2023-03-12T07:04:12;4.90;;;3.37;;
26211;SDS011;13951;49.516;6.094;2023-03-12T07:06:45;6.50;;;4.30;;
26211;SDS011;13951;49.516;6.094;2023-03-12T07:09:21;4.90;;;3.83;;
26211;SDS011;13951;49.516;6.094;2023-03-12T07:11:54;5.87;;;4.00;;
26211;SDS011;13951;49.516;6.094;2023-03-12T07:14:27;6.00;;;3.70;;
26211;SDS011;13951;49.516;6.094;2023-03-12T07:17:00;5.57;;;4.07;;
26211;SDS011;13951;49.516;6.094;2023-03-12T07:19:33;5.30;;;3.53;;
26211;SDS011;13951;49.516;6.094;2023-03-12T07:22:06;6.07;;;4.33;;
26211;SDS011;13951;49.516;6.094;2023-03-12T07:24:39;5.17;;;3.93;;
26211;SDS011;13951;49.516;6.094;2023-03-12T07:27:12;6.37;;;4.03;;
26211;SDS011;13951;49.516;6.094;2023-03-12T07:29:44;5.80;;;4.37;;
26211;SDS011;13951;49.516;6.094;2023-03-12T07:32:17;7.37;;;4.40;;
26211;SDS011;13951;49.516;6.094;2023-03-12T07:34:50;8.30;;;4.67;;
26211;SDS011;13951;49.516;6.094;2023-03-12T07:37:23;5.67;;;4.40;;
26211;SDS011;13951;49.516;6.094;2023-03-12T07:39:55;5.90;;;4.00;;
26211;SDS011;13951;49.516;6.094;2023-03-12T07:42:28;8.73;;;4.50;;
26211;SDS011;13951;49.516;6.094;2023-03-12T07:45:01;9.73;;;4.97;;
26211;SDS011;13951;49.516;6.094;2023-03-12T07:47:35;8.40;;;5.40;;
26211;SDS011;13951;49.516;6.094;2023-03-12T07:50:08;6.60;;;4.73;;
26211;SDS011;13951;49.516;6.094;2023-03-12T07:52:42;8.10;;;5.53;;
26211;SDS011;13951;49.516;6.094;2023-03-12T07:55:16;8.20;;;5.30;;
26211;SDS011;13951;49.516;6.094;2023-03-12T07:57:49;8.80;;;5.17;;
26211;SDS011;13951;49.516;6.094;2023-03-12T08:00:23;9.03;;;5.70;;
26211;SDS011;13951;49.516;6.094;2023-03-12T08:02:56;7.63;;;4.77;;
26211;SDS011;13951;49.516;6.094;2023-03-12T08:05:29;7.23;;;4.63;;
26211;SDS011;13951;49.516;6.094;2023-03-12T08:08:03;7.43;;;5.20;;
26211;SDS011;13951;49.516;6.094;2023-03-12T08:10:36;10.30;;;4.63;;
26211;SDS011;13951;49.516;6.094;2023-03-12T08:13:09;6.57;;;4.63;;
26211;SDS011;13951;49.516;6.094;2023-03-12T08:15:42;8.07;;;4.87;;
26211;SDS011;13951;49.516;6.094;2023-03-12T08:18:15;7.80;;;4.53;;
26211;SDS011;13951;49.516;6.094;2023-03-12T08:20:48;6.93;;;4.70;;
26211;SDS011;13951;49.516;6.094;2023-03-12T08:23:25;8.80;;;5.20;;
26211;SDS011;13951;49.516;6.094;2023-03-12T08:25:58;10.37;;;5.47;;
26211;SDS011;13951;49.516;6.094;2023-03-12T08:28:31;8.90;;;5.13;;
26211;SDS011;13951;49.516;6.094;2023-03-12T08:31:03;7.60;;;4.97;;
26211;SDS011;13951;49.516;6.094;2023-03-12T08:33:36;9.40;;;5.97;;
26211;SDS011;13951;49.516;6.094;2023-03-12T08:36:12;10.27;;;5.77;;
26211;SDS011;13951;49.516;6.094;2023-03-12T08:38:45;8.17;;;5.23;;
26211;SDS011;13951;49.516;6.094;2023-03-12T08:41:17;11.73;;;5.90;;
26211;SDS011;13951;49.516;6.094;2023-03-12T08:43:50;11.13;;;5.33;;
26211;SDS011;13951;49.516;6.094;2023-03-12T08:46:23;9.70;;;4.97;;
26211;SDS011;13951;49.516;6.094;2023-03-12T08:48:56;12.82;;;7.13;;
26211;SDS011;13951;49.516;6.094;2023-03-12T08:51:29;9.07;;;5.03;;
26211;SDS011;13951;49.516;6.094;2023-03-12T08:54:01;9.87;;;3.13;;
26211;SDS011;13951;49.516;6.094;2023-03-12T08:56:36;3.53;;;2.10;;
26211;SDS011;13951;49.516;6.094;2023-03-12T08:59:13;4.90;;;2.70;;
26211;SDS011;13951;49.516;6.094;2023-03-12T09:01:45;2.60;;;2.00;;
26211;SDS011;13951;49.516;6.094;2023-03-12T09:04:18;5.37;;;2.77;;
26211;SDS011;13951;49.516;6.094;2023-03-12T09:06:51;5.87;;;2.73;;
26211;SDS011;13951;49.516;6.094;2023-03-12T09:09:24;13.38;;;4.07;;
26211;SDS011;13951;49.516;6.094;2023-03-12T09:11:57;11.50;;;3.70;;
26211;SDS011;13951;49.516;6.094;2023-03-12T09:14:29;6.10;;;2.53;;
26211;SDS011;13951;49.516;6.094;2023-03-12T09:17:22;8.97;;;3.17;;
26211;SDS011;13951;49.516;6.094;2023-03-12T09:19:55;11.63;;;3.77;;
26211;SDS011;13951;49.516;6.094;2023-03-12T09:22:28;11.67;;;4.43;;
26211;SDS011;13951;49.516;6.094;2023-03-12T09:25:02;11.73;;;4.43;;
26211;SDS011;13951;49.516;6.094;2023-03-12T09:27:40;15.63;;;5.30;;
26211;SDS011;13951;49.516;6.094;2023-03-12T09:30:16;13.67;;;4.83;;
26211;SDS011;13951;49.516;6.094;2023-03-12T09:32:51;12.63;;;4.87;;
26211;SDS011;13951;49.516;6.094;2023-03-12T09:35:24;9.37;;;4.43;;
26211;SDS011;13951;49.516;6.094;2023-03-12T09:37:57;10.70;;;3.80;;
26211;SDS011;13951;49.516;6.094;2023-03-12T09:40:31;12.30;;;3.43;;
26211;SDS011;13951;49.516;6.094;2023-03-12T09:43:19;9.77;;;3.70;;
26211;SDS011;13951;49.516;6.094;2023-03-12T09:45:54;8.83;;;3.70;;
26211;SDS011;13951;49.516;6.094;2023-03-12T09:48:34;9.23;;;3.60;;
26211;SDS011;13951;49.516;6.094;2023-03-12T09:51:13;8.70;;;3.23;;
26211;SDS011;13951;49.516;6.094;2023-03-12T09:53:58;13.77;;;3.57;;
26211;SDS011;13951;49.516;6.094;2023-03-12T09:56:34;11.67;;;3.10;;
26211;SDS011;13951;49.516;6.094;2023-03-12T09:59:10;12.67;;;3.13;;
26211;SDS011;13951;49.516;6.094;2023-03-12T10:01:49;18.70;;;3.37;;
26211;SDS011;13951;49.516;6.094;2023-03-12T10:07:11;10.73;;;3.27;;
26211;SDS011;13951;49.516;6.094;2023-03-12T10:16:15;9.43;;;2.13;;
26211;SDS011;13951;49.516;6.094;2023-03-12T10:24:53;9.97;;;2.17;;
26211;SDS011;13951;49.516;6.094;2023-03-12T10:27:43;9.10;;;2.10;;
26211;SDS011;13951;49.516;6.094;2023-03-12T10:30:17;7.37;;;1.83;;
26211;SDS011;13951;49.516;6.094;2023-03-12T10:32:53;5.13;;;2.17;;
26211;SDS011;13951;49.516;6.094;2023-03-12T10:35:29;8.93;;;2.47;;
26211;SDS011;13951;49.516;6.094;2023-03-12T10:38:03;7.37;;;1.87;;
26211;SDS011;13951;49.516;6.094;2023-03-12T10:40:40;6.60;;;1.97;;
26211;SDS011;13951;49.516;6.094;2023-03-12T10:43:13;6.37;;;1.90;;
26211;SDS011;13951;49.516;6.094;2023-03-12T10:45:56;7.73;;;1.90;;
26211;SDS011;13951;49.516;6.094;2023-03-12T10:48:45;10.60;;;1.83;;
26211;SDS011;13951;49.516;6.094;2023-03-12T10:51:18;7.63;;;2.20;;
26211;SDS011;13951;49.516;6.094;2023-03-12T10:53:51;14.93;;;1.90;;
26211;SDS011;13951;49.516;6.094;2023-03-12T10:56:23;8.67;;;1.70;;
26211;SDS011;13951;49.516;6.094;2023-03-12T10:58:56;13.60;;;2.30;;
26211;SDS011;13951;49.516;6.094;2023-03-12T11:01:31;9.53;;;1.70;;
26211;SDS011;13951;49.516;6.094;2023-03-12T11:04:08;13.33;;;1.90;;
26211;SDS011;13951;49.516;6.094;2023-03-12T11:10:01;6.70;;;1.87;;
26211;SDS011;13951;49.516;6.094;2023-03-12T11:12:35;15.53;;;2.20;;
26211;SDS011;13951;49.516;6.094;2023-03-12T11:15:24;10.10;;;2.50;;
26211;SDS011;13951;49.516;6.094;2023-03-12T11:18:22;11.32;;;2.60;;
26211;SDS011;13951;49.516;6.094;2023-03-12T11:23:42;8.17;;;2.00;;
26211;SDS011;13951;49.516;6.094;2023-03-12T11:26:20;10.27;;;2.03;;
26211;SDS011;13951;49.516;6.094;2023-03-12T11:28:57;14.73;;;2.07;;
26211;SDS011;13951;49.516;6.094;2023-03-12T11:31:35;11.70;;;2.20;;
26211;SDS011;13951;49.516;6.094;2023-03-12T11:34:23;11.90;;;2.00;;
26211;SDS011;13951;49.516;6.094;2023-03-12T11:37:14;13.20;;;2.10;;
26211;SDS011;13951;49.516;6.094;2023-03-12T11:40:14;12.10;;;1.87;;
26211;SDS011;13951;49.516;6.094;2023-03-12T11:49:04;6.07;;;1.77;;
26211;SDS011;13951;49.516;6.094;2023-03-12T11:54:53;11.90;;;1.90;;
26211;SDS011;13951;49.516;6.094;2023-03-12T12:10:01;7.80;;;1.93;;
26211;SDS011;13951;49.516;6.094;2023-03-12T12:12:47;7.57;;;1.67;;
26211;SDS011;13951;49.516;6.094;2023-03-12T12:15:26;10.80;;;2.10;;
26211;SDS011;13951;49.516;6.094;2023-03-12T12:21:05;11.37;;;2.03;;
26211;SDS011;13951;49.516;6.094;2023-03-12T12:24:04;7.17;;;1.90;;
26211;SDS011;13951;49.516;6.094;2023-03-12T12:35:28;9.47;;;1.63;;
26211;SDS011;13951;49.516;6.094;2023-03-12T12:41:14;5.93;;;1.57;;
26211;SDS011;13951;49.516;6.094;2023-03-12T12:43:52;8.40;;;1.37;;
26211;SDS011;13951;49.516;6.094;2023-03-12T12:46:34;14.33;;;2.00;;
26211;SDS011;13951;49.516;6.094;2023-03-12T12:52:09;12.23;;;1.77;;
26211;SDS011;13951;49.516;6.094;2023-03-12T12:57:44;5.10;;;1.70;;
26211;SDS011;13951;49.516;6.094;2023-03-12T13:00:36;7.13;;;1.70;;
26211;SDS011;13951;49.516;6.094;2023-03-12T13:03:16;6.13;;;1.57;;
26211;SDS011;13951;49.516;6.094;2023-03-12T13:05:58;9.93;;;2.00;;
26211;SDS011;13951;49.516;6.094;2023-03-12T13:16:39;8.07;;;1.70;;
26211;SDS011;13951;49.516;6.094;2023-03-12T13:28:34;6.87;;;2.40;;
26211;SDS011;13951;49.516;6.094;2023-03-12T13:31:42;8.67;;;1.70;;
26211;SDS011;13951;49.516;6.094;2023-03-12T13:36:52;7.27;;;1.87;;
26211;SDS011;13951;49.516;6.094;2023-03-12T13:39:31;8.97;;;1.60;;
26211;SDS011;13951;49.516;6.094;2023-03-12T13:44:55;4.17;;;1.50;;
26211;SDS011;13951;49.516;6.094;2023-03-12T13:47:58;8.37;;;2.03;;
26211;SDS011;13951;49.516;6.094;2023-03-12T13:50:40;8.30;;;1.70;;
26211;SDS011;13951;49.516;6.094;2023-03-12T13:53:23;8.80;;;1.80;;
26211;SDS011;13951;49.516;6.094;2023-03-12T13:56:03;6.20;;;1.50;;
26211;SDS011;13951;49.516;6.094;2023-03-12T13:58:39;9.17;;;1.83;;
26211;SDS011;13951;49.516;6.094;2023-03-12T14:01:35;11.97;;;1.90;;
26211;SDS011;13951;49.516;6.094;2023-03-12T14:04:14;9.43;;;1.47;;
26211;SDS011;13951;49.516;6.094;2023-03-12T14:07:00;3.13;;;1.10;;
26211;SDS011;13951;49.516;6.094;2023-03-12T14:09:57;8.60;;;1.73;;
26211;SDS011;13951;49.516;6.094;2023-03-12T14:12:55;9.33;;;1.83;;
26211;SDS011;13951;49.516;6.094;2023-03-12T14:18:47;10.27;;;1.87;;
26211;SDS011;13951;49.516;6.094;2023-03-12T14:21:22;5.53;;;1.67;;
26211;SDS011;13951;49.516;6.094;2023-03-12T14:23:59;8.77;;;1.70;;
26211;SDS011;13951;49.516;6.094;2023-03-12T14:26:34;7.83;;;1.50;;
26211;SDS011;13951;49.516;6.094;2023-03-12T14:31:57;9.40;;;1.40;;
26211;SDS011;13951;49.516;6.094;2023-03-12T14:43:19;6.07;;;1.20;;
26211;SDS011;13951;49.516;6.094;2023-03-12T14:45:58;7.67;;;1.30;;
26211;SDS011;13951;49.516;6.094;2023-03-12T14:48:36;5.63;;;1.70;;
26211;SDS011;13951;49.516;6.094;2023-03-12T14:51:28;8.87;;;1.47;;
26211;SDS011;13951;49.516;6.094;2023-03-12T14:54:02;9.83;;;1.53;;
26211;SDS011;13951;49.516;6.094;2023-03-12T14:56:35;10.07;;;2.08;;
26211;SDS011;13951;49.516;6.094;2023-03-12T15:02:01;10.03;;;2.07;;
26211;SDS011;13951;49.516;6.094;2023-03-12T15:04:42;10.03;;;1.93;;
26211;SDS011;13951;49.516;6.094;2023-03-12T15:07:17;8.57;;;1.70;;
26211;SDS011;13951;49.516;6.094;2023-03-12T15:09:53;5.90;;;1.10;;
26211;SDS011;13951;49.516;6.094;2023-03-12T15:12:36;7.73;;;1.77;;
26211;SDS011;13951;49.516;6.094;2023-03-12T15:15:10;6.93;;;2.30;;
26211;SDS011;13951;49.516;6.094;2023-03-12T15:20:51;5.43;;;1.63;;
26211;SDS011;13951;49.516;6.094;2023-03-12T15:23:25;9.10;;;1.60;;
26211;SDS011;13951;49.516;6.094;2023-03-12T15:26:08;8.53;;;1.60;;
26211;SDS011;13951;49.516;6.094;2023-03-12T15:28:52;7.13;;;1.80;;
26211;SDS011;13951;49.516;6.094;2023-03-12T15:31:47;5.83;;;1.10;;
26211;SDS011;13951;49.516;6.094;2023-03-12T15:37:18;14.03;;;2.37;;
26211;SDS011;13951;49.516;6.094;2023-03-12T15:39:54;8.33;;;1.70;;
26211;SDS011;13951;49.516;6.094;2023-03-12T15:42:27;10.00;;;1.90;;
26211;SDS011;13951;49.516;6.094;2023-03-12T15:45:01;5.80;;;1.77;;
26211;SDS011;13951;49.516;6.094;2023-03-12T15:47:38;12.80;;;1.70;;
26211;SDS011;13951;49.516;6.094;2023-03-12T15:50:17;5.70;;;1.70;;
26211;SDS011;13951;49.516;6.094;2023-03-12T15:53:03;8.97;;;1.57;;
26211;SDS011;13951;49.516;6.094;2023-03-12T15:55:37;5.10;;;1.20;;
26211;SDS011;13951;49.516;6.094;2023-03-12T15:58:26;4.13;;;1.10;;
26211;SDS011;13951;49.516;6.094;2023-03-12T16:03:44;10.03;;;2.07;;
26211;SDS011;13951;49.516;6.094;2023-03-12T16:06:19;4.90;;;1.40;;
26211;SDS011;13951;49.516;6.094;2023-03-12T16:08:58;6.27;;;1.47;;
26211;SDS011;13951;49.516;6.094;2023-03-12T16:11:35;4.33;;;1.30;;
26211;SDS011;13951;49.516;6.094;2023-03-12T16:14:15;5.37;;;1.10;;
26211;SDS011;13951;49.516;6.094;2023-03-12T16:16:57;8.20;;;1.70;;
26211;SDS011;13951;49.516;6.094;2023-03-12T16:19:30;7.10;;;1.90;;
26211;SDS011;13951;49.516;6.094;2023-03-12T16:22:05;27.17;;;9.10;;
26211;SDS011;13951;49.516;6.094;2023-03-12T16:24:38;18.57;;;4.77;;
26211;SDS011;13951;49.516;6.094;2023-03-12T16:27:12;9.37;;;2.73;;
26211;SDS011;13951;49.516;6.094;2023-03-12T16:30:09;5.17;;;1.40;;
26211;SDS011;13951;49.516;6.094;2023-03-12T16:32:46;7.47;;;1.47;;
26211;SDS011;13951;49.516;6.094;2023-03-12T16:35:20;6.83;;;1.70;;
26211;SDS011;13951;49.516;6.094;2023-03-12T16:37:54;9.43;;;1.60;;
26211;SDS011;13951;49.516;6.094;2023-03-12T16:40:27;9.43;;;2.00;;
26211;SDS011;13951;49.516;6.094;2023-03-12T16:43:06;5.83;;;1.70;;
26211;SDS011;13951;49.516;6.094;2023-03-12T16:45:44;6.40;;;1.63;;
26211;SDS011;13951;49.516;6.094;2023-03-12T16:48:21;8.30;;;1.40;;
26211;SDS011;13951;49.516;6.094;2023-03-12T16:51:04;6.97;;;1.53;;
26211;SDS011;13951;49.516;6.094;2023-03-12T16:53:45;3.80;;;1.50;;
26211;SDS011;13951;49.516;6.094;2023-03-12T16:56:36;6.93;;;1.57;;
26211;SDS011;13951;49.516;6.094;2023-03-12T16:59:16;7.70;;;2.00;;
26211;SDS011;13951;49.516;6.094;2023-03-12T17:01:58;8.70;;;1.50;;
26211;SDS011;13951;49.516;6.094;2023-03-12T17:04:32;3.50;;;1.10;;
26211;SDS011;13951;49.516;6.094;2023-03-12T17:07:05;3.47;;;1.20;;
26211;SDS011;13951;49.516;6.094;2023-03-12T17:09:39;6.83;;;1.80;;
26211;SDS011;13951;49.516;6.094;2023-03-12T17:12:31;9.70;;;2.20;;
26211;SDS011;13951;49.516;6.094;2023-03-12T17:15:12;6.60;;;1.93;;
26211;SDS011;13951;49.516;6.094;2023-03-12T17:17:51;7.30;;;1.37;;
26211;SDS011;13951;49.516;6.094;2023-03-12T17:20:27;9.80;;;1.60;;
26211;SDS011;13951;49.516;6.094;2023-03-12T17:23:09;8.33;;;1.53;;
26211;SDS011;13951;49.516;6.094;2023-03-12T17:25:42;8.50;;;1.50;;
26211;SDS011;13951;49.516;6.094;2023-03-12T17:28:16;10.13;;;1.47;;
26211;SDS011;13951;49.516;6.094;2023-03-12T17:30:48;5.93;;;1.50;;
26211;SDS011;13951;49.516;6.094;2023-03-12T17:33:22;8.33;;;1.57;;
26211;SDS011;13951;49.516;6.094;2023-03-12T17:38:31;16.57;;;6.40;;
26211;SDS011;13951;49.516;6.094;2023-03-12T17:41:07;20.23;;;7.33;;
26211;SDS011;13951;49.516;6.094;2023-03-12T17:43:57;7.70;;;1.60;;
26211;SDS011;13951;49.516;6.094;2023-03-12T17:46:33;6.97;;;1.20;;